createdAt,value
2018-11-22T12:17:30.851Z,38.43
2018-11-22T12:21:34.603Z,35.93
2018-11-22T12:25:37.463Z,36.87
2018-11-22T12:29:40.540Z,39.60
2018-11-22T12:33:47.769Z,38.53
2018-11-22T12:37:56.348Z,39.77
2018-11-22T12:41:59.426Z,40.83
2018-11-22T12:46:02.267Z,37.97
2018-11-22T12:50:06.287Z,36.17
2018-11-22T12:54:09.153Z,41.80
2018-11-22T12:58:12.224Z,39.20
2018-11-22T13:02:18.339Z,39.23
2018-11-22T13:06:17.991Z,40.43
2018-11-22T13:10:20.867Z,38.80
2018-11-22T13:14:23.730Z,42.13
2018-11-22T13:18:26.779Z,37.70
2018-11-22T13:22:29.659Z,38.33
2018-11-22T13:26:32.507Z,41.60
2018-11-22T13:30:35.564Z,40.30
2018-11-22T13:34:38.459Z,38.97
2018-11-22T13:38:41.319Z,39.40
2018-11-22T13:42:44.865Z,40.83
2018-11-22T13:46:47.727Z,39.50
2018-11-22T13:50:50.579Z,42.53
2018-11-22T13:54:53.440Z,39.93
2018-11-22T13:58:56.292Z,38.90
2018-11-22T14:03:00.590Z,39.43
2018-11-22T14:07:03.436Z,39.73
2018-11-22T14:11:13.399Z,34.23
2018-11-22T14:15:14.427Z,40.60
2018-11-22T14:19:17.271Z,38.20
2018-11-22T14:23:20.329Z,42.20
2018-11-22T14:27:23.203Z,37.80
2018-11-22T14:31:26.073Z,41.07
2018-11-22T14:35:28.954Z,39.40
2018-11-22T14:39:32.007Z,40.33
2018-11-22T14:43:35.085Z,40.93
2018-11-22T14:47:37.934Z,40.20
2018-11-22T14:51:44.228Z,37.73
2018-11-22T14:55:47.296Z,38.23
2018-11-22T14:59:50.160Z,42.73
2018-11-22T15:03:53.007Z,39.30
2018-11-22T15:07:55.860Z,37.90
2018-11-22T15:11:58.704Z,40.00
2018-11-22T15:16:01.574Z,40.73
2018-11-22T15:20:05.300Z,38.00
2018-11-22T15:24:08.164Z,36.57
2018-11-22T15:28:11.035Z,39.63
2018-11-22T15:32:13.926Z,36.73
2018-11-22T15:36:16.795Z,35.67
2018-11-22T15:40:21.174Z,36.50
2018-11-22T15:44:24.228Z,38.07
2018-11-22T15:48:27.095Z,37.60
2018-11-22T15:52:30.153Z,38.37
2018-11-22T15:56:33.003Z,36.63
2018-11-22T16:00:36.167Z,37.83
2018-11-22T16:04:38.731Z,40.10
2018-11-22T16:08:41.580Z,38.57
2018-11-22T16:12:45.859Z,38.50
2018-11-22T16:16:47.899Z,36.50
2018-11-22T16:20:50.964Z,36.70
2018-11-22T16:24:53.807Z,38.07
2018-11-22T16:28:56.685Z,43.03
2018-11-22T16:32:59.732Z,39.93
2018-11-22T16:37:02.611Z,37.93
2018-11-22T16:41:05.721Z,37.30
2018-11-22T16:45:13.899Z,38.63
2018-11-22T16:49:16.767Z,39.70
2018-11-22T16:53:19.639Z,39.67
2018-11-22T16:57:22.702Z,36.47
2018-11-22T17:01:27.770Z,36.37
2018-11-22T17:05:28.928Z,39.00
2018-11-22T17:09:31.791Z,38.77
2018-11-22T17:13:34.635Z,37.90
2018-11-22T17:17:37.576Z,38.90
2018-11-22T17:21:40.419Z,40.07
2018-11-22T17:25:43.507Z,37.77
2018-11-22T17:29:46.387Z,37.37
2018-11-22T17:33:49.379Z,38.80
2018-11-22T17:37:52.984Z,39.50
2018-11-22T17:41:55.855Z,37.40
2018-11-22T17:45:58.706Z,35.80
2018-11-22T17:50:01.577Z,39.90
2018-11-22T17:54:05.043Z,40.73
2018-11-22T17:58:07.960Z,39.00
2018-11-22T18:02:11.036Z,36.60
2018-11-22T18:06:13.895Z,38.63
2018-11-22T18:10:19.100Z,35.83
2018-11-22T18:14:22.172Z,34.47
2018-11-22T18:18:25.552Z,37.30
2018-11-22T18:22:28.628Z,37.47
2018-11-22T18:26:31.481Z,38.43
2018-11-22T18:30:34.855Z,35.93
2018-11-22T18:34:37.735Z,38.80
2018-11-22T18:38:40.643Z,34.80
2018-11-22T18:42:44.191Z,36.60
2018-11-22T18:46:47.068Z,38.53
2018-11-22T18:50:50.060Z,34.60
2018-11-22T18:54:52.935Z,37.77
2018-11-22T18:58:56.016Z,37.47
2018-11-22T19:02:59.659Z,35.17
2018-11-22T19:07:02.512Z,36.13
2018-11-22T19:11:05.396Z,35.87
2018-11-22T19:15:09.144Z,36.77
2018-11-22T19:19:12.019Z,34.47
2018-11-22T19:23:15.216Z,35.57
2018-11-22T19:27:18.707Z,35.27
2018-11-22T19:31:21.673Z,34.43
2018-11-22T19:35:26.843Z,35.00
2018-11-22T19:39:29.932Z,33.50
2018-11-22T19:43:32.803Z,35.60
2018-11-22T19:47:35.860Z,35.63
2018-11-22T19:51:38.929Z,32.17
2018-11-22T19:55:41.827Z,35.10
2018-11-22T19:59:44.927Z,34.40
2018-11-22T20:03:47.776Z,30.80
2018-11-22T20:07:52.163Z,33.23
2018-11-22T20:11:55.017Z,32.60
2018-11-22T20:15:57.876Z,30.73
2018-11-22T20:20:00.727Z,32.33
2018-11-22T20:24:10.260Z,31.07
2018-11-22T20:28:13.114Z,32.93
2018-11-22T20:32:16.117Z,34.60
2018-11-22T20:36:18.975Z,34.07
2018-11-22T20:40:23.064Z,30.10
2018-11-22T20:44:25.916Z,33.00
2018-11-22T20:48:28.985Z,31.80
2018-11-22T20:52:31.839Z,31.30
2018-11-22T20:56:34.755Z,30.20
2018-11-22T21:00:39.126Z,31.00
2018-11-22T21:04:41.991Z,29.00
2018-11-22T21:08:48.597Z,30.67
2018-11-22T21:12:47.720Z,30.47
2018-11-22T21:16:50.567Z,28.77
2018-11-22T21:20:53.436Z,29.77
2018-11-22T21:24:56.284Z,28.37
2018-11-22T21:28:59.358Z,28.97
2018-11-22T21:33:02.596Z,30.13
2018-11-22T21:37:05.659Z,29.63
2018-11-22T21:41:08.531Z,28.67
2018-11-22T21:45:13.358Z,28.60
2018-11-22T21:49:16.203Z,27.00
2018-11-22T21:53:19.060Z,27.43
2018-11-22T21:57:22.124Z,28.00
2018-11-22T22:01:25.015Z,25.80
2018-11-22T22:05:28.091Z,25.83
2018-11-22T22:09:31.171Z,27.20
2018-11-22T22:13:34.019Z,29.00
2018-11-22T22:17:37.500Z,26.73
2018-11-22T22:21:40.353Z,26.13
2018-11-22T22:25:43.206Z,24.67
2018-11-22T22:29:46.059Z,26.30
2018-11-22T22:33:48.919Z,24.33
2018-11-22T22:37:51.984Z,24.40
2018-11-22T22:41:54.887Z,25.23
2018-11-22T22:45:57.739Z,25.63
2018-11-22T22:50:00.600Z,24.60
2018-11-22T22:54:03.467Z,26.60
2018-11-22T22:58:06.336Z,26.07
2018-11-22T23:02:09.389Z,23.80
2018-11-22T23:06:12.247Z,23.40
2018-11-22T23:10:15.432Z,23.60
2018-11-22T23:14:18.304Z,24.10
2018-11-22T23:18:21.197Z,23.13
2018-11-22T23:22:24.081Z,22.73
2018-11-22T23:26:26.956Z,23.53
2018-11-22T23:30:31.240Z,24.40
2018-11-22T23:34:34.302Z,25.97
2018-11-22T23:38:37.184Z,23.90
2018-11-22T23:42:40.344Z,24.33
2018-11-22T23:46:43.432Z,23.10
2018-11-22T23:50:46.296Z,23.33
2018-11-22T23:54:49.173Z,24.30
2018-11-22T23:58:52.072Z,23.33
